createdAt,value
2018-04-13T00:00:49.323Z,16.93
2018-04-13T00:02:04.000Z,16.91
2018-04-13T00:02:49.369Z,16.93
2018-04-13T00:03:49.396Z,16.93
2018-04-13T00:05:04.066Z,16.93
2018-04-13T00:05:49.173Z,16.98
2018-04-13T00:06:49.461Z,16.93
2018-04-13T00:07:49.481Z,16.96
2018-04-13T00:08:49.507Z,16.96
2018-04-13T00:10:04.244Z,16.89
2018-04-13T00:10:49.549Z,16.94
2018-04-13T00:11:49.570Z,16.94
2018-04-13T00:12:49.594Z,16.93
2018-04-13T00:13:49.621Z,16.93
2018-04-13T00:14:49.642Z,16.91
2018-04-13T00:15:49.666Z,16.83
2018-04-13T00:16:49.685Z,16.85
2018-04-13T00:17:49.718Z,16.86
2018-04-13T00:18:49.738Z,16.85
2018-04-13T00:19:49.763Z,16.86
2018-04-13T00:20:49.779Z,16.81
2018-04-13T00:21:49.806Z,16.88
2018-04-13T00:22:49.828Z,16.81
2018-04-13T00:23:49.594Z,16.83
2018-04-13T00:24:49.873Z,16.88
2018-04-13T00:25:49.901Z,16.82
2018-04-13T00:26:49.920Z,16.82
2018-04-13T00:28:49.970Z,16.88
2018-04-13T00:29:49.994Z,16.81
2018-04-13T00:31:04.671Z,16.73
2018-04-13T00:31:49.775Z,16.85
2018-04-13T00:33:04.716Z,16.88
2018-04-13T00:34:04.738Z,16.81
2018-04-13T00:34:50.106Z,16.78
2018-04-13T00:35:50.125Z,16.81
2018-04-13T00:36:50.156Z,16.73
2018-04-13T00:37:50.203Z,16.76
2018-04-13T00:38:49.938Z,16.78
2018-04-13T00:40:50.246Z,16.73
2018-04-13T00:42:49.768Z,16.63
2018-04-13T00:43:50.308Z,16.7
2018-04-13T00:44:50.330Z,16.68
2018-04-13T00:45:50.355Z,16.66
2018-04-13T00:46:50.379Z,16.64
2018-04-13T00:47:50.406Z,16.7
2018-04-13T00:49:05.084Z,16.68
2018-04-13T00:49:50.450Z,16.63
2018-04-13T00:50:50.215Z,16.67
2018-04-13T00:51:50.502Z,16.67
2018-04-13T00:52:50.516Z,16.78
2018-04-13T00:53:50.538Z,16.73
2018-04-13T00:54:50.563Z,16.63
2018-04-13T00:55:50.590Z,16.7
2018-04-13T00:56:50.610Z,16.7
2018-04-13T00:58:05.296Z,16.64
2018-04-13T00:58:50.659Z,16.67
2018-04-13T00:59:50.419Z,16.68
2018-04-13T01:00:50.700Z,16.68
2018-04-13T01:01:50.721Z,16.71
2018-04-13T01:02:50.486Z,16.67
2018-04-13T01:04:05.429Z,16.67
2018-04-13T01:04:50.534Z,16.61
2018-04-13T01:06:05.473Z,16.68
2018-04-13T01:06:50.840Z,16.64
2018-04-13T01:07:50.859Z,16.7
2018-04-13T01:08:50.968Z,16.67
2018-04-13T01:09:50.646Z,16.67
2018-04-13T01:10:50.930Z,16.66
2018-04-13T01:11:50.956Z,16.67
2018-04-13T01:12:50.975Z,16.68
2018-04-13T01:14:50.761Z,16.61
2018-04-13T01:15:50.785Z,16.78
2018-04-13T01:16:51.077Z,16.78
2018-04-13T01:17:51.093Z,16.73
2018-04-13T01:18:51.110Z,16.79
2018-04-13T01:19:51.140Z,16.75
2018-04-13T01:20:51.159Z,16.81
2018-04-13T01:21:51.180Z,16.76
2018-04-13T01:22:51.204Z,16.79
2018-04-13T01:23:51.228Z,16.82
2018-04-13T01:24:50.991Z,16.78
2018-04-13T01:25:51.278Z,16.82
2018-04-13T01:26:51.302Z,16.76
2018-04-13T01:27:51.323Z,16.71
2018-04-13T01:28:51.340Z,16.78
2018-04-13T01:30:06.024Z,16.67
2018-04-13T01:30:51.389Z,16.78
2018-04-13T01:31:51.153Z,16.78
2018-04-13T01:32:51.434Z,16.68
2018-04-13T01:33:51.199Z,16.63
2018-04-13T01:34:51.483Z,16.7
2018-04-13T01:35:51.502Z,16.67
2018-04-13T01:36:51.266Z,16.67
2018-04-13T01:37:51.289Z,16.67
2018-04-13T01:38:51.055Z,16.67
2018-04-13T01:39:51.596Z,16.68
2018-04-13T01:40:51.619Z,16.67
2018-04-13T01:41:51.641Z,16.64
2018-04-13T01:42:51.664Z,16.66
2018-04-13T01:45:51.733Z,16.71
2018-04-13T01:46:51.759Z,16.79
2018-04-13T01:47:51.778Z,16.73
2018-04-13T01:48:51.802Z,16.64
2018-04-13T01:49:51.824Z,16.71
2018-04-13T01:50:51.920Z,16.64
2018-04-13T01:51:51.872Z,16.68
2018-04-13T01:52:51.895Z,16.7
2018-04-13T01:53:51.918Z,16.64
2018-04-13T01:54:51.681Z,16.61
2018-04-13T01:56:51.732Z,16.67
2018-04-13T01:57:52.010Z,16.64
2018-04-13T01:58:52.033Z,16.53
2018-04-13T01:59:51.803Z,16.57
2018-04-13T02:00:52.186Z,16.52
2018-04-13T02:01:51.843Z,16.58
2018-04-13T02:02:52.123Z,16.56
2018-04-13T02:03:52.147Z,16.43
2018-04-13T02:04:51.911Z,16.45
2018-04-13T02:05:51.938Z,16.46
2018-04-13T02:06:51.957Z,16.46
2018-04-13T02:08:06.899Z,16.49
2018-04-13T02:09:06.921Z,16.43
2018-04-13T02:09:52.030Z,16.46
2018-04-13T02:11:06.709Z,16.49
2018-04-13T02:12:52.351Z,16.49
2018-04-13T02:13:52.377Z,16.42
2018-04-13T02:14:52.398Z,16.49
2018-04-13T02:15:52.420Z,16.49
2018-04-13T02:17:06.846Z,16.42
2018-04-13T02:17:52.470Z,16.38
2018-04-13T02:18:52.492Z,16.45
2018-04-13T02:19:52.515Z,16.39
2018-04-13T02:20:52.552Z,16.43
2018-04-13T02:21:52.560Z,16.49
2018-04-13T02:22:52.585Z,16.28
2018-04-13T02:23:52.609Z,16.46
2018-04-13T02:25:07.290Z,16.41
2018-04-13T02:25:52.392Z,16.35
2018-04-13T02:26:52.677Z,16.28
2018-04-13T02:27:52.699Z,16.39
2018-04-13T02:28:52.718Z,16.31
2018-04-13T02:29:52.745Z,16.38
2018-04-13T02:30:52.786Z,16.5
2018-04-13T02:31:52.792Z,16.42
2018-04-13T02:33:07.477Z,16.31
2018-04-13T02:33:52.833Z,16.3
2018-04-13T02:34:52.857Z,16.45
2018-04-13T02:35:52.884Z,16.34
2018-04-13T02:36:52.904Z,16.43
2018-04-13T02:37:52.410Z,16.34
2018-04-13T02:38:52.950Z,16.33
2018-04-13T02:40:07.630Z,16.5
2018-04-13T02:40:52.995Z,16.48
2018-04-13T02:41:53.022Z,16.42
2018-04-13T02:43:07.439Z,16.39
2018-04-13T02:43:53.068Z,16.39
2018-04-13T02:44:52.826Z,16.39
2018-04-13T02:45:53.107Z,16.49
2018-04-13T02:46:53.135Z,16.3
2018-04-13T02:47:53.155Z,16.34
2018-04-13T02:49:07.581Z,16.28
2018-04-13T02:49:53.198Z,16.45
2018-04-13T02:50:53.222Z,16.31
2018-04-13T02:51:53.244Z,16.28
2018-04-13T02:53:07.928Z,16.34
2018-04-13T02:53:53.033Z,16.33
2018-04-13T02:54:52.794Z,16.34
2018-04-13T02:56:08.001Z,16.3
2018-04-13T02:56:53.357Z,16.45
2018-04-13T02:57:53.380Z,16.48
2018-04-13T02:58:53.157Z,16.43
2018-04-13T02:59:53.166Z,16.35
2018-04-13T03:00:53.459Z,16.33
2018-04-13T03:01:53.216Z,16.41
2018-04-13T03:02:52.978Z,16.38
2018-04-13T03:03:53.520Z,16.31
2018-04-13T03:05:53.560Z,16.38
2018-04-13T03:06:53.583Z,16.34
2018-04-13T03:07:53.610Z,16.3
2018-04-13T03:08:53.628Z,16.27
2018-04-13T03:09:53.409Z,16.28
2018-04-13T03:10:53.418Z,16.3
2018-04-13T03:11:53.708Z,16.31
2018-04-13T03:13:08.380Z,16.25
2018-04-13T03:13:53.745Z,16.33
2018-04-13T03:14:53.765Z,16.33
2018-04-13T03:15:53.533Z,16.3
2018-04-13T03:16:53.560Z,16.24
2018-04-13T03:17:53.835Z,16.3
2018-04-13T03:20:53.387Z,16.2
2018-04-13T03:21:53.926Z,16.11
2018-04-13T03:22:53.953Z,16.2
2018-04-13T03:23:54.018Z,16.23
2018-04-13T03:24:53.999Z,16.2
2018-04-13T03:25:54.120Z,16.14
2018-04-13T03:26:53.788Z,16.14
2018-04-13T03:27:54.063Z,16.12
2018-04-13T03:28:54.087Z,16.08
2018-04-13T03:29:53.852Z,16.08
2018-04-13T03:30:53.872Z,16.09
2018-04-13T03:31:54.157Z,16.14
2018-04-13T03:32:54.179Z,16.11
2018-04-13T03:33:53.940Z,16.15
2018-04-13T03:36:54.271Z,16.14
2018-04-13T03:37:53.774Z,16.17
2018-04-13T03:38:54.311Z,16.17
2018-04-13T03:39:54.338Z,16.2
2018-04-13T03:40:54.380Z,16.24
2018-04-13T03:41:54.384Z,16.27
2018-04-13T03:42:54.145Z,16.28
2018-04-13T03:44:09.085Z,16.28
2018-04-13T03:44:54.447Z,16.27
2018-04-13T03:46:54.234Z,16.34
2018-04-13T03:47:54.258Z,16.34
2018-04-13T03:48:54.548Z,16.27
2018-04-13T03:52:09.272Z,16.43
2018-04-13T03:52:54.629Z,16.45
2018-04-13T03:53:54.657Z,16.45
2018-04-13T03:54:54.677Z,16.39
2018-04-13T03:55:54.711Z,16.45
2018-04-13T03:56:54.720Z,16.31
2018-04-13T03:57:54.485Z,16.31
2018-04-13T03:58:54.770Z,16.27
2018-04-13T03:59:54.529Z,16.28
2018-04-13T04:00:54.553Z,16.23
2018-04-13T04:01:54.844Z,16.27
2018-04-13T04:03:54.878Z,16.21
2018-04-13T04:04:54.647Z,16.23
2018-04-13T04:05:54.924Z,16.25
2018-04-13T04:06:54.949Z,16.2
2018-04-13T04:08:09.372Z,16.28
2018-04-13T04:08:54.992Z,16.27
2018-04-13T04:09:54.758Z,16.25
2018-04-13T04:10:55.042Z,16.21
2018-04-13T04:11:54.543Z,16.14
2018-04-13T04:12:55.083Z,16.09
2018-04-13T04:13:55.105Z,15.97
2018-04-13T04:15:09.788Z,16.01
2018-04-13T04:16:09.810Z,15.97
2018-04-13T04:17:09.832Z,15.89
2018-04-13T04:17:55.196Z,15.9
2018-04-13T04:18:55.218Z,15.89
2018-04-13T04:19:55.242Z,15.84
2018-04-13T04:20:54.749Z,15.86
2018-04-13T04:21:55.036Z,15.78
2018-04-13T04:22:55.310Z,15.84
2018-04-13T04:24:10.098Z,15.82
2018-04-13T04:24:55.354Z,15.82
2018-04-13T04:25:55.378Z,15.89
2018-04-13T04:26:55.414Z,15.93
2018-04-13T04:27:55.421Z,15.97
2018-04-13T04:28:55.445Z,15.97
2018-04-13T04:29:55.471Z,16.02
2018-04-13T04:30:55.235Z,16
2018-04-13T04:31:55.257Z,16.09
2018-04-13T04:32:55.536Z,16.11
2018-04-13T04:33:55.557Z,16.09
2018-04-13T04:34:55.579Z,16.07
2018-04-13T04:35:55.603Z,16.01
2018-04-13T04:36:55.638Z,16.07
2018-04-13T04:37:55.648Z,16.11
2018-04-13T04:38:55.683Z,16.08
2018-04-13T04:40:10.101Z,16.11
2018-04-13T04:40:55.462Z,16.08
2018-04-13T04:41:55.740Z,16.15
2018-04-13T04:42:55.764Z,16.11
2018-04-13T04:43:55.785Z,16.14
2018-04-13T04:45:10.471Z,16.23
2018-04-13T04:45:55.829Z,16.27
2018-04-13T04:46:55.856Z,16.24
2018-04-13T04:47:55.876Z,16.33
2018-04-13T04:48:55.903Z,16.33
2018-04-13T04:49:55.926Z,16.25
2018-04-13T04:50:55.948Z,16.35
2018-04-13T04:51:55.972Z,16.35
2018-04-13T04:52:55.743Z,16.31
2018-04-13T04:53:55.755Z,16.42
2018-04-13T04:55:10.695Z,16.43
2018-04-13T04:56:10.725Z,16.41
2018-04-13T04:56:56.081Z,16.52
2018-04-13T04:57:56.108Z,16.57
2018-04-13T04:58:56.136Z,16.49
2018-04-13T04:59:56.151Z,16.58
2018-04-13T05:00:56.171Z,16.61
2018-04-13T05:01:56.201Z,16.68
2018-04-13T05:02:55.961Z,16.7
2018-04-13T05:03:56.240Z,16.66
2018-04-13T05:05:10.664Z,16.67
2018-04-13T05:05:56.387Z,16.79
2018-04-13T05:06:56.320Z,16.76
2018-04-13T05:07:56.336Z,16.76
2018-04-13T05:08:56.366Z,16.81
2018-04-13T05:09:56.119Z,16.76
2018-04-13T05:10:56.404Z,16.76
2018-04-13T05:11:56.511Z,16.83
2018-04-13T05:12:56.446Z,16.81
2018-04-13T05:13:56.476Z,16.83
2018-04-13T05:14:56.497Z,16.81
2018-04-13T05:15:56.518Z,16.75
2018-04-13T05:17:11.198Z,16.85
2018-04-13T05:18:11.220Z,16.81
2018-04-13T05:19:11.242Z,16.81
2018-04-13T05:19:56.347Z,16.78
2018-04-13T05:21:11.040Z,16.79
2018-04-13T05:21:56.396Z,16.73
2018-04-13T05:22:56.672Z,16.78
2018-04-13T05:23:56.705Z,16.68
2018-04-13T05:25:56.484Z,16.76
2018-04-13T05:27:56.789Z,16.75
2018-04-13T05:28:56.815Z,16.68
2018-04-13T05:29:56.836Z,16.73
2018-04-13T05:30:56.915Z,16.67
2018-04-13T05:32:56.918Z,16.73
2018-04-13T05:33:56.925Z,16.75
2018-04-13T05:34:56.952Z,16.73
2018-04-13T05:35:56.971Z,16.78
2018-04-13T05:36:56.479Z,16.78
2018-04-13T05:37:57.017Z,16.81
2018-04-13T05:38:57.047Z,16.7
2018-04-13T05:39:57.064Z,16.68
2018-04-13T05:41:56.853Z,16.53
2018-04-13T05:43:11.796Z,16.5
2018-04-13T05:43:57.155Z,16.49
2018-04-13T05:44:57.180Z,16.46
2018-04-13T05:45:57.202Z,16.49
2018-04-13T05:46:56.969Z,16.57
2018-04-13T05:47:57.247Z,16.42
2018-04-13T05:48:57.368Z,16.43
2018-04-13T05:49:57.294Z,16.49
2018-04-13T05:50:57.314Z,16.53
2018-04-13T05:51:57.083Z,16.45
2018-04-13T05:53:11.762Z,16.52
2018-04-13T05:53:57.125Z,16.63
2018-04-13T05:54:57.407Z,16.66
2018-04-13T05:55:57.433Z,16.7
2018-04-13T05:56:57.196Z,16.71
2018-04-13T05:59:12.156Z,16.85
2018-04-13T05:59:57.260Z,16.83
2018-04-13T06:00:57.283Z,16.83
2018-04-13T06:01:57.565Z,16.96
2018-04-13T06:02:57.588Z,16.93
2018-04-13T06:03:57.359Z,16.97
2018-04-13T06:04:57.216Z,17
2018-04-13T06:05:57.657Z,17.06
2018-04-13T06:07:12.341Z,17.08
2018-04-13T06:07:57.701Z,17.12
2018-04-13T06:08:57.726Z,17.18
2018-04-13T06:09:57.751Z,17.19
2018-04-13T06:10:57.772Z,17.15
2018-04-13T06:11:57.536Z,17.16
2018-04-13T06:12:57.820Z,17.16
2018-04-13T06:13:57.940Z,17.25
2018-04-13T06:15:12.263Z,17.19
2018-04-13T06:15:57.887Z,17.19
2018-04-13T06:16:57.915Z,17.23
2018-04-13T06:17:57.932Z,17.18
2018-04-13T06:18:58.167Z,17.23
2018-04-13T06:19:57.720Z,17.25
2018-04-13T06:20:57.742Z,17.31
2018-04-13T06:21:58.025Z,17.3
2018-04-13T06:23:12.706Z,17.33
2018-04-13T06:23:58.071Z,17.3
2018-04-13T06:24:57.835Z,17.23
2018-04-13T06:25:58.122Z,17.28
2018-04-13T06:26:58.145Z,17.33
2018-04-13T06:28:57.928Z,17.28
2018-04-13T06:30:12.884Z,17.26
2018-04-13T06:30:58.232Z,17.25
2018-04-13T06:31:57.737Z,17.38
2018-04-13T06:32:58.277Z,17.36
2018-04-13T06:33:58.305Z,17.26
2018-04-13T06:34:58.329Z,17.3
2018-04-13T06:35:58.346Z,17.37
2018-04-13T06:36:59.928Z,17.41
2018-04-13T06:38:13.053Z,17.43
2018-04-13T06:38:58.158Z,17.38
2018-04-13T06:39:58.182Z,17.48
2018-04-13T06:40:58.204Z,17.33
2018-04-13T06:41:58.486Z,17.38
2018-04-13T06:42:58.509Z,17.36
2018-04-13T06:43:58.536Z,17.28
2018-04-13T06:44:58.300Z,17.28
2018-04-13T06:45:58.579Z,17.12
2018-04-13T06:46:58.349Z,17.21
2018-04-13T06:47:58.626Z,17.18
2018-04-13T06:48:58.394Z,17.19
2018-04-13T06:49:58.671Z,17.19
2018-04-13T06:50:58.697Z,17.25
2018-04-13T06:51:58.724Z,17.16
2018-04-13T06:53:13.401Z,17.18
2018-04-13T06:54:13.423Z,17.07
2018-04-13T06:54:58.796Z,17.15
2018-04-13T06:56:13.211Z,17.03
2018-04-13T06:56:58.833Z,17.04
2018-04-13T06:57:58.865Z,16.93
2018-04-13T06:59:58.901Z,16.75
2018-04-13T07:00:58.925Z,16.81
2018-04-13T07:02:13.349Z,16.66
2018-04-13T07:02:58.972Z,16.7
2018-04-13T07:04:13.659Z,16.56
2018-04-13T07:04:59.017Z,16.5
2018-04-13T07:05:59.045Z,16.46
2018-04-13T07:06:59.062Z,16.39
2018-04-13T07:07:59.086Z,16.39
2018-04-13T07:08:59.109Z,16.38
2018-04-13T07:09:58.618Z,16.39
2018-04-13T07:10:58.896Z,16.41
2018-04-13T07:11:59.179Z,16.45
2018-04-13T07:13:13.873Z,16.39
2018-04-13T07:14:59.250Z,16.52
2018-04-13T07:15:59.270Z,16.48
2018-04-13T07:16:59.291Z,16.49
2018-04-13T07:18:13.984Z,16.43
2018-04-13T07:19:59.361Z,16.48
2018-04-13T07:20:59.126Z,16.41
2018-04-13T07:22:59.435Z,16.49
2018-04-13T07:23:59.193Z,16.49
2018-04-13T07:24:59.663Z,16.49
2018-04-13T07:25:59.501Z,16.5
2018-04-13T07:26:59.262Z,16.57
2018-04-13T07:28:13.945Z,16.56
2018-04-13T07:28:59.566Z,16.64
2018-04-13T07:29:59.602Z,16.6
2018-04-13T07:30:59.615Z,16.6
2018-04-13T07:32:59.142Z,16.56
2018-04-13T07:34:14.825Z,16.53
2018-04-13T07:34:59.892Z,16.49
2018-04-13T07:35:59.758Z,16.46
2018-04-13T07:37:00.318Z,16.48
2018-04-13T07:37:59.832Z,16.52
2018-04-13T07:38:59.539Z,16.49
2018-04-13T07:39:59.561Z,16.5
2018-04-13T07:40:59.331Z,16.35
2018-04-13T07:41:59.609Z,16.48
2018-04-13T07:42:59.630Z,16.49
2018-04-13T07:43:59.912Z,16.49
2018-04-13T07:44:59.751Z,16.35
2018-04-13T07:46:00.382Z,16.39
2018-04-13T07:46:59.722Z,16.39
2018-04-13T07:48:00.009Z,16.41
2018-04-13T07:49:00.031Z,16.3
2018-04-13T07:50:59.819Z,16.24
2018-04-13T07:52:00.293Z,16.21
2018-04-13T07:53:00.120Z,16.3
2018-04-13T07:54:14.805Z,16.09
2018-04-13T07:55:00.168Z,16.05
2018-04-13T07:56:00.189Z,15.96
2018-04-13T07:56:59.696Z,15.97
2018-04-13T07:57:59.981Z,15.94
2018-04-13T07:59:01.114Z,15.93
2018-04-13T08:01:00.307Z,15.92
2018-04-13T08:02:00.328Z,15.89
2018-04-13T08:03:00.440Z,15.96
2018-04-13T08:04:00.112Z,16.04
2018-04-13T08:05:14.794Z,16.09
2018-04-13T08:06:00.161Z,16.12
2018-04-13T08:07:00.181Z,16.12
2018-04-13T08:08:00.462Z,16.11
2018-04-13T08:09:00.483Z,16.21
2018-04-13T08:10:00.521Z,16.23
2018-04-13T08:11:00.269Z,16.21
2018-04-13T08:12:00.564Z,16.2
2018-04-13T08:13:00.577Z,16.17
2018-04-13T08:14:00.078Z,16.07
2018-04-13T08:15:00.750Z,16.11
2018-04-13T08:16:00.643Z,16.09
2018-04-13T08:17:00.669Z,16.21
2018-04-13T08:18:00.858Z,16.11
2018-04-13T08:19:00.713Z,16.08
2018-04-13T08:20:00.733Z,15.97
2018-04-13T08:21:00.757Z,16.11
2018-04-13T08:22:00.783Z,16.14
2018-04-13T08:23:00.805Z,16.27
2018-04-13T08:24:15.489Z,16.28
2018-04-13T08:25:00.845Z,16.28
2018-04-13T08:26:00.875Z,16.27
2018-04-13T08:27:00.896Z,16.42
2018-04-13T08:28:15.574Z,16.35
2018-04-13T08:29:00.734Z,16.3
2018-04-13T08:30:00.973Z,16.23
2018-04-13T08:31:15.670Z,16.15
2018-04-13T08:32:01.080Z,16.15
2018-04-13T08:33:01.084Z,16.2
2018-04-13T08:34:00.834Z,16.2
2018-04-13T08:35:00.819Z,16.27
2018-04-13T08:38:01.144Z,16.21
2018-04-13T08:39:00.907Z,16.27
2018-04-13T08:40:00.669Z,16.34
2018-04-13T08:41:01.004Z,16.31
2018-04-13T08:42:01.237Z,16.39
2018-04-13T08:43:01.001Z,16.42
2018-04-13T08:44:15.942Z,16.46
2018-04-13T08:45:01.045Z,16.38
2018-04-13T08:46:01.363Z,16.33
2018-04-13T08:47:01.167Z,16.34
2018-04-13T08:48:01.109Z,16.27
2018-04-13T08:49:01.903Z,16.24
2018-04-13T08:50:01.160Z,16.27
2018-04-13T08:51:01.439Z,16.28
2018-04-13T08:52:01.207Z,16.23
2018-04-13T08:53:16.258Z,16.31
2018-04-13T08:54:01.356Z,16.2
2018-04-13T08:55:01.381Z,16.05
2018-04-13T08:56:01.036Z,16.08
2018-04-13T08:57:01.063Z,16.15
2018-04-13T08:58:01.677Z,16.17
2018-04-13T08:59:01.622Z,16.21
2018-04-13T09:00:01.652Z,16.31
2018-04-13T09:01:01.728Z,16.27
2018-04-13T09:02:16.350Z,16.28
2018-04-13T09:03:01.558Z,16.17
2018-04-13T09:04:01.743Z,16.17
2018-04-13T09:05:01.765Z,16.14
2018-04-13T09:06:01.798Z,16.21
2018-04-13T09:07:01.547Z,16.27
2018-04-13T09:08:01.574Z,16.39
2018-04-13T09:09:16.516Z,16.45
2018-04-13T09:10:01.876Z,16.43
2018-04-13T09:11:01.953Z,16.52
2018-04-13T09:12:01.931Z,16.57
2018-04-13T09:13:01.789Z,16.52
2018-04-13T09:14:01.972Z,16.64
2018-04-13T09:15:01.995Z,16.7
2018-04-13T09:16:01.758Z,16.82
2018-04-13T09:17:02.040Z,16.89
2018-04-13T09:18:01.817Z,16.85
2018-04-13T09:19:02.090Z,16.83
2018-04-13T09:20:16.516Z,16.83
2018-04-13T09:21:01.871Z,16.78
2018-04-13T09:23:02.180Z,16.83
2018-04-13T09:24:02.207Z,16.97
2018-04-13T09:25:16.885Z,17.03
2018-04-13T09:26:01.990Z,17.15
2018-04-13T09:27:02.275Z,17.15
2018-04-13T09:28:02.119Z,17.21
2018-04-13T09:29:02.371Z,17.12
2018-04-13T09:30:02.353Z,17.21
2018-04-13T09:31:02.372Z,17.25
2018-04-13T09:32:17.056Z,17.18
2018-04-13T09:33:17.068Z,17.21
2018-04-13T09:34:02.178Z,17.23
2018-04-13T09:35:02.457Z,17.18
2018-04-13T09:36:01.966Z,17.16
2018-04-13T09:37:02.506Z,17.16
2018-04-13T09:39:02.293Z,17.21
2018-04-13T09:40:16.980Z,17.34
2018-04-13T09:41:02.606Z,17.33
2018-04-13T09:42:02.632Z,17.37
2018-04-13T09:43:02.387Z,17.52
2018-04-13T09:44:02.519Z,17.59
2018-04-13T09:45:17.355Z,17.62
2018-04-13T09:46:02.752Z,17.56
2018-04-13T09:47:17.401Z,17.68
2018-04-13T09:48:02.505Z,17.66
2018-04-13T09:49:17.448Z,17.58
2018-04-13T09:50:02.602Z,17.58
2018-04-13T09:51:02.844Z,17.66
2018-04-13T09:52:02.341Z,17.75
2018-04-13T09:53:02.890Z,17.77
2018-04-13T09:54:02.909Z,17.74
2018-04-13T09:55:02.940Z,17.75
2018-04-13T09:56:02.954Z,17.64
2018-04-13T09:57:02.988Z,17.49
2018-04-13T09:59:03.029Z,17.74
2018-04-13T10:00:02.788Z,17.7
2018-04-13T10:01:03.076Z,17.7
2018-04-13T10:02:02.579Z,17.55
2018-04-13T10:03:17.786Z,17.63
2018-04-13T10:04:17.802Z,17.52
2018-04-13T10:05:03.169Z,17.55
2018-04-13T10:06:17.591Z,17.4
2018-04-13T10:07:03.219Z,17.34
2018-04-13T10:08:03.267Z,17.37
2018-04-13T10:09:03.001Z,17.33
2018-04-13T10:11:03.313Z,17.25
2018-04-13T10:13:03.363Z,17.19
2018-04-13T10:14:03.383Z,17.15
2018-04-13T10:15:03.405Z,17.15
2018-04-13T10:16:03.171Z,17.04
2018-04-13T10:17:03.451Z,16.93
2018-04-13T10:18:02.956Z,16.96
2018-04-13T10:19:03.498Z,16.83
2018-04-13T10:20:03.620Z,16.85
2018-04-13T10:21:17.946Z,16.89
2018-04-13T10:22:03.310Z,16.93
2018-04-13T10:23:03.331Z,16.88
2018-04-13T10:24:03.356Z,17.08
2018-04-13T10:25:03.126Z,16.98
2018-04-13T10:26:03.663Z,17.07
2018-04-13T10:27:03.424Z,17.28
2018-04-13T10:30:03.496Z,17.38
2018-04-13T10:31:03.522Z,17.56
2018-04-13T10:32:03.811Z,17.55
2018-04-13T10:33:03.828Z,17.37
2018-04-13T10:34:03.595Z,17.44
2018-04-13T10:35:03.617Z,17.33
2018-04-13T10:36:03.898Z,17.28
2018-04-13T10:38:03.948Z,17.23
2018-04-13T10:39:03.707Z,17.26
2018-04-13T10:40:03.995Z,17.22
2018-04-13T10:41:03.756Z,17.34
2018-04-13T10:42:03.520Z,17.4
2018-04-13T10:43:04.062Z,17.4
2018-04-13T10:44:18.745Z,17.4
2018-04-13T10:45:03.848Z,17.41
2018-04-13T10:46:03.885Z,17.44
2018-04-13T10:47:04.160Z,17.38
2018-04-13T10:48:03.921Z,17.38
2018-04-13T10:49:18.969Z,17.51
2018-04-13T10:50:03.972Z,17.48
2018-04-13T10:51:04.265Z,17.56
2018-04-13T10:52:18.930Z,17.49
2018-04-13T10:53:04.036Z,17.56
2018-04-13T10:54:04.318Z,17.52
2018-04-13T10:55:04.349Z,17.56
2018-04-13T10:57:04.503Z,17.33
2018-04-13T10:58:04.425Z,17.26
2018-04-13T10:59:04.442Z,17.26
2018-04-13T11:01:04.491Z,17.06
2018-04-13T11:02:04.256Z,17.08
2018-04-13T11:03:04.271Z,17.08
2018-04-13T11:04:04.568Z,16.96
2018-04-13T11:05:04.319Z,16.97
2018-04-13T11:06:04.345Z,16.97
2018-04-13T11:07:04.107Z,16.86
2018-04-13T11:08:04.652Z,16.93
2018-04-13T11:10:04.440Z,16.81
2018-04-13T11:11:04.457Z,16.86
2018-04-13T11:12:04.487Z,16.97
2018-04-13T11:13:04.505Z,16.94
2018-04-13T11:15:19.471Z,16.93
2018-04-13T11:16:04.576Z,17.06
2018-04-13T11:17:04.596Z,17.07
2018-04-13T11:18:04.880Z,17.23
2018-04-13T11:19:04.907Z,17.22
2018-04-13T11:20:04.928Z,17.31
2018-04-13T11:21:04.699Z,17.31
2018-04-13T11:22:05.084Z,17.41
2018-04-13T11:23:04.738Z,17.51
2018-04-13T11:24:19.678Z,17.68
2018-04-13T11:25:19.446Z,17.77
2018-04-13T11:26:04.813Z,17.81
2018-04-13T11:27:05.101Z,17.82
2018-04-13T11:29:04.620Z,17.79
2018-04-13T11:30:04.917Z,17.84
2018-04-13T11:31:04.932Z,17.93
2018-04-13T11:32:05.209Z,18.07
2018-04-13T11:33:04.981Z,17.99
2018-04-13T11:34:05.261Z,18.07
2018-04-13T11:35:05.292Z,18.15
2018-04-13T11:36:05.048Z,18.25
2018-04-13T11:37:04.814Z,18.27
2018-04-13T11:38:05.361Z,18.39
2018-04-13T11:39:20.035Z,18.41
2018-04-13T11:40:05.401Z,18.42
2018-04-13T11:41:05.427Z,18.44
2018-04-13T11:42:05.452Z,18.63
2018-04-13T11:43:05.214Z,18.66
2018-04-13T11:45:05.273Z,18.8
2018-04-13T11:46:05.025Z,18.82
2018-04-13T11:48:05.590Z,18.84
2018-04-13T11:49:05.620Z,18.84
2018-04-13T11:50:05.664Z,18.88
2018-04-13T11:51:20.326Z,19.07
2018-04-13T11:52:05.692Z,19.21
2018-04-13T11:53:20.375Z,19.43
2018-04-13T11:54:05.744Z,19.37
2018-04-13T11:55:05.512Z,19.36
2018-04-13T11:56:05.792Z,19.16
2018-04-13T11:57:05.810Z,19.19
2018-04-13T11:58:05.840Z,19.21
2018-04-13T11:59:05.859Z,19.06
2018-04-13T12:00:05.886Z,18.98
2018-04-13T12:01:05.907Z,18.73
2018-04-13T12:02:05.414Z,18.66
2018-04-13T12:04:05.722Z,18.5
2018-04-13T12:05:05.747Z,18.36
2018-04-13T12:06:05.771Z,18.63
2018-04-13T12:08:05.829Z,18.66
2018-04-13T12:09:05.844Z,18.75
2018-04-13T12:10:05.608Z,18.62
2018-04-13T12:11:06.159Z,18.76
2018-04-13T12:12:06.174Z,18.65
2018-04-13T12:13:06.209Z,18.62
2018-04-13T12:14:06.227Z,18.72
2018-04-13T12:15:06.255Z,18.65
2018-04-13T12:17:06.298Z,18.67
2018-04-13T12:18:06.065Z,18.75
2018-04-13T12:19:21.009Z,18.73
2018-04-13T12:20:06.380Z,18.66
2018-04-13T12:21:06.138Z,18.75
2018-04-13T12:22:06.423Z,18.76
2018-04-13T12:23:06.185Z,18.92
2018-04-13T12:24:06.472Z,18.88
2018-04-13T12:25:05.977Z,18.88
2018-04-13T12:26:06.005Z,18.94
2018-04-13T12:27:06.287Z,18.94
2018-04-13T12:28:06.576Z,18.99
2018-04-13T12:29:20.997Z,19.08
2018-04-13T12:30:06.601Z,19.06
2018-04-13T12:32:06.668Z,19.13
2018-04-13T12:33:06.431Z,19.18
2018-04-13T12:34:06.455Z,19.13
2018-04-13T12:35:21.140Z,19.19
2018-04-13T12:36:06.774Z,19.02
2018-04-13T12:37:06.271Z,19.13
2018-04-13T12:38:06.295Z,19.04
2018-04-13T12:39:06.580Z,18.99
2018-04-13T12:40:06.617Z,18.82
2018-04-13T12:41:06.898Z,18.7
2018-04-13T12:42:06.392Z,18.67
2018-04-13T12:45:06.725Z,18.9
2018-04-13T12:46:06.760Z,18.94
2018-04-13T12:47:06.773Z,18.87
2018-04-13T12:48:07.066Z,18.81
2018-04-13T12:49:06.933Z,18.85
2018-04-13T12:50:21.772Z,18.94
2018-04-13T12:51:07.133Z,19.06
2018-04-13T12:52:07.161Z,19.11
2018-04-13T12:53:07.199Z,19.1
2018-04-13T12:54:07.347Z,19.16
2018-04-13T12:55:07.648Z,19.19
2018-04-13T12:57:07.312Z,19.36
2018-04-13T12:58:07.305Z,19.63
2018-04-13T12:59:07.329Z,19.59
2018-04-13T13:00:07.095Z,19.73
2018-04-13T13:01:07.120Z,19.71
2018-04-13T13:03:07.168Z,20.02
2018-04-13T13:04:07.451Z,20.13
2018-04-13T13:05:07.244Z,20.13
2018-04-13T13:06:07.504Z,20.06
2018-04-13T13:07:07.267Z,20.17
2018-04-13T13:08:07.292Z,20.08
2018-04-13T13:09:07.677Z,20.11
2018-04-13T13:10:07.354Z,20.23
2018-04-13T13:11:07.632Z,20.23
2018-04-13T13:12:07.651Z,20.08
2018-04-13T13:13:07.673Z,20.17
2018-04-13T13:14:22.360Z,19.96
2018-04-13T13:15:07.738Z,19.78
2018-04-13T13:16:07.854Z,19.81
2018-04-13T13:17:07.780Z,19.88
2018-04-13T13:18:07.801Z,19.78
2018-04-13T13:20:07.849Z,20.13
2018-04-13T13:21:07.881Z,20.24
2018-04-13T13:23:07.930Z,20.57
2018-04-13T13:24:07.689Z,20.73
2018-04-13T13:25:07.712Z,20.64
2018-04-13T13:26:07.745Z,20.58
2018-04-13T13:27:07.506Z,20.51
2018-04-13T13:28:07.789Z,20.47
2018-04-13T13:29:22.731Z,20.43
2018-04-13T13:30:08.107Z,20.51
2018-04-13T13:31:07.862Z,20.69
2018-04-13T13:32:08.147Z,20.72
2018-04-13T13:33:07.922Z,20.62
2018-04-13T13:34:08.206Z,20.52
2018-04-13T13:35:07.707Z,20.61
2018-04-13T13:37:07.756Z,20.67
2018-04-13T13:38:22.955Z,20.59
2018-04-13T13:39:08.321Z,20.52
2018-04-13T13:40:08.087Z,20.58
2018-04-13T13:41:08.112Z,20.69
2018-04-13T13:42:08.136Z,20.73
2018-04-13T13:43:08.421Z,20.79
2018-04-13T13:44:08.186Z,20.85
2018-04-13T13:45:08.225Z,20.97
2018-04-13T13:46:23.154Z,21.07
2018-04-13T13:47:23.179Z,21.28
2018-04-13T13:48:08.550Z,21.21
2018-04-13T13:50:08.594Z,20.88
2018-04-13T13:51:08.620Z,20.79
2018-04-13T13:52:08.387Z,20.94
2018-04-13T13:53:08.670Z,21.13
2018-04-13T13:55:08.722Z,21.22